sensor_id;sensor_type;location;lat;lon;timestamp;P1;durP1;ratioP1;P2;durP2;ratioP2
65328;SDS011;51941;52.210;5.158;2023-09-19T00:00:04;6.38;;;1.30;;
65328;SDS011;51941;52.210;5.158;2023-09-19T00:02:35;3.90;;;1.13;;
65328;SDS011;51941;52.210;5.158;2023-09-19T00:05:04;9.32;;;1.70;;
65328;SDS011;51941;52.210;5.158;2023-09-19T00:07:32;6.85;;;1.30;;
65328;SDS011;51941;52.210;5.158;2023-09-19T00:10:02;10.02;;;1.35;;
65328;SDS011;51941;52.210;5.158;2023-09-19T00:12:29;7.60;;;1.42;;
65328;SDS011;51941;52.210;5.158;2023-09-19T00:14:56;6.00;;;1.52;;
65328;SDS011;51941;52.210;5.158;2023-09-19T00:17:27;9.40;;;1.42;;
65328;SDS011;51941;52.210;5.158;2023-09-19T00:19:57;7.75;;;1.27;;
65328;SDS011;51941;52.210;5.158;2023-09-19T00:22:23;5.15;;;1.40;;
65328;SDS011;51941;52.210;5.158;2023-09-19T00:24:51;4.30;;;1.23;;
65328;SDS011;51941;52.210;5.158;2023-09-19T00:27:18;7.10;;;1.20;;
65328;SDS011;51941;52.210;5.158;2023-09-19T00:29:45;7.38;;;1.42;;
65328;SDS011;51941;52.210;5.158;2023-09-19T00:32:12;5.32;;;1.20;;
65328;SDS011;51941;52.210;5.158;2023-09-19T00:34:40;5.38;;;1.40;;
65328;SDS011;51941;52.210;5.158;2023-09-19T00:37:07;5.07;;;1.20;;
65328;SDS011;51941;52.210;5.158;2023-09-19T00:39:37;3.50;;;1.25;;
65328;SDS011;51941;52.210;5.158;2023-09-19T00:42:04;4.13;;;1.15;;
65328;SDS011;51941;52.210;5.158;2023-09-19T00:44:30;5.50;;;1.20;;
65328;SDS011;51941;52.210;5.158;2023-09-19T00:46:59;3.97;;;1.10;;
65328;SDS011;51941;52.210;5.158;2023-09-19T00:49:27;3.97;;;1.30;;
65328;SDS011;51941;52.210;5.158;2023-09-19T00:51:58;4.88;;;1.20;;
65328;SDS011;51941;52.210;5.158;2023-09-19T00:54:25;2.47;;;1.00;;
65328;SDS011;51941;52.210;5.158;2023-09-19T00:56:53;5.68;;;1.30;;
65328;SDS011;51941;52.210;5.158;2023-09-19T00:59:20;5.20;;;1.23;;
65328;SDS011;51941;52.210;5.158;2023-09-19T01:01:47;5.18;;;1.65;;
65328;SDS011;51941;52.210;5.158;2023-09-19T01:04:18;2.38;;;0.88;;
65328;SDS011;51941;52.210;5.158;2023-09-19T01:06:45;5.47;;;1.35;;
65328;SDS011;51941;52.210;5.158;2023-09-19T01:09:16;3.13;;;1.00;;
65328;SDS011;51941;52.210;5.158;2023-09-19T01:11:47;7.35;;;1.23;;
65328;SDS011;51941;52.210;5.158;2023-09-19T01:14:29;4.88;;;1.10;;
65328;SDS011;51941;52.210;5.158;2023-09-19T01:17:01;5.25;;;1.20;;
65328;SDS011;51941;52.210;5.158;2023-09-19T01:22:42;4.68;;;1.58;;
65328;SDS011;51941;52.210;5.158;2023-09-19T01:25:37;4.82;;;1.13;;
65328;SDS011;51941;52.210;5.158;2023-09-19T01:28:21;6.05;;;1.20;;
65328;SDS011;51941;52.210;5.158;2023-09-19T01:31:03;3.60;;;1.13;;
65328;SDS011;51941;52.210;5.158;2023-09-19T01:33:54;4.43;;;0.95;;
65328;SDS011;51941;52.210;5.158;2023-09-19T01:36:25;4.72;;;1.25;;
65328;SDS011;51941;52.210;5.158;2023-09-19T01:38:52;6.68;;;1.65;;
65328;SDS011;51941;52.210;5.158;2023-09-19T01:41:21;7.70;;;1.27;;
65328;SDS011;51941;52.210;5.158;2023-09-19T01:43:55;8.45;;;1.60;;
65328;SDS011;51941;52.210;5.158;2023-09-19T01:46:24;4.05;;;1.13;;
65328;SDS011;51941;52.210;5.158;2023-09-19T01:48:58;9.30;;;1.20;;
65328;SDS011;51941;52.210;5.158;2023-09-19T01:51:40;6.90;;;1.52;;
65328;SDS011;51941;52.210;5.158;2023-09-19T01:54:12;5.07;;;1.10;;
65328;SDS011;51941;52.210;5.158;2023-09-19T01:56:48;4.72;;;0.93;;
65328;SDS011;51941;52.210;5.158;2023-09-19T01:59:21;4.25;;;1.30;;
65328;SDS011;51941;52.210;5.158;2023-09-19T02:01:54;4.25;;;0.90;;
65328;SDS011;51941;52.210;5.158;2023-09-19T02:04:23;6.95;;;1.25;;
65328;SDS011;51941;52.210;5.158;2023-09-19T02:06:50;6.03;;;1.10;;
65328;SDS011;51941;52.210;5.158;2023-09-19T02:09:17;5.18;;;1.42;;
65328;SDS011;51941;52.210;5.158;2023-09-19T02:11:44;4.68;;;1.50;;
65328;SDS011;51941;52.210;5.158;2023-09-19T02:14:11;4.97;;;1.23;;
65328;SDS011;51941;52.210;5.158;2023-09-19T02:16:40;6.37;;;1.37;;
65328;SDS011;51941;52.210;5.158;2023-09-19T02:19:08;6.80;;;1.27;;
65328;SDS011;51941;52.210;5.158;2023-09-19T02:21:35;6.93;;;1.40;;
65328;SDS011;51941;52.210;5.158;2023-09-19T02:24:02;6.35;;;1.60;;
65328;SDS011;51941;52.210;5.158;2023-09-19T02:26:29;7.88;;;1.45;;
65328;SDS011;51941;52.210;5.158;2023-09-19T02:28:56;6.53;;;1.40;;
65328;SDS011;51941;52.210;5.158;2023-09-19T02:31:22;4.07;;;1.30;;
65328;SDS011;51941;52.210;5.158;2023-09-19T02:33:49;4.78;;;1.30;;
65328;SDS011;51941;52.210;5.158;2023-09-19T02:36:17;8.07;;;1.40;;
65328;SDS011;51941;52.210;5.158;2023-09-19T02:38:44;6.32;;;1.40;;
65328;SDS011;51941;52.210;5.158;2023-09-19T02:41:11;5.28;;;1.23;;
65328;SDS011;51941;52.210;5.158;2023-09-19T02:43:38;6.45;;;1.55;;
65328;SDS011;51941;52.210;5.158;2023-09-19T02:46:04;16.63;;;2.30;;
65328;SDS011;51941;52.210;5.158;2023-09-19T02:48:32;11.55;;;1.55;;
65328;SDS011;51941;52.210;5.158;2023-09-19T02:50:59;8.68;;;1.77;;
65328;SDS011;51941;52.210;5.158;2023-09-19T02:53:28;6.65;;;1.38;;
65328;SDS011;51941;52.210;5.158;2023-09-19T02:55:56;10.00;;;1.73;;
65328;SDS011;51941;52.210;5.158;2023-09-19T02:58:24;7.50;;;1.85;;
65328;SDS011;51941;52.210;5.158;2023-09-19T03:00:53;7.35;;;1.38;;
65328;SDS011;51941;52.210;5.158;2023-09-19T03:03:20;4.07;;;1.50;;
65328;SDS011;51941;52.210;5.158;2023-09-19T03:05:48;10.85;;;1.80;;
65328;SDS011;51941;52.210;5.158;2023-09-19T03:08:17;7.22;;;1.60;;
65328;SDS011;51941;52.210;5.158;2023-09-19T03:10:47;7.13;;;1.73;;
65328;SDS011;51941;52.210;5.158;2023-09-19T03:13:14;7.63;;;1.60;;
65328;SDS011;51941;52.210;5.158;2023-09-19T03:15:41;10.20;;;1.90;;
65328;SDS011;51941;52.210;5.158;2023-09-19T03:18:10;9.23;;;2.35;;
65328;SDS011;51941;52.210;5.158;2023-09-19T03:20:38;10.98;;;2.00;;
65328;SDS011;51941;52.210;5.158;2023-09-19T03:23:05;9.32;;;1.60;;
65328;SDS011;51941;52.210;5.158;2023-09-19T03:25:34;8.93;;;1.85;;
65328;SDS011;51941;52.210;5.158;2023-09-19T03:28:03;6.47;;;1.40;;
65328;SDS011;51941;52.210;5.158;2023-09-19T03:30:31;7.50;;;1.60;;
65328;SDS011;51941;52.210;5.158;2023-09-19T03:35:30;10.80;;;1.88;;
65328;SDS011;51941;52.210;5.158;2023-09-19T03:37:56;8.25;;;1.48;;
65328;SDS011;51941;52.210;5.158;2023-09-19T03:40:23;11.35;;;1.83;;
65328;SDS011;51941;52.210;5.158;2023-09-19T03:42:51;7.38;;;1.65;;
65328;SDS011;51941;52.210;5.158;2023-09-19T03:45:19;9.98;;;2.00;;
65328;SDS011;51941;52.210;5.158;2023-09-19T03:47:49;10.38;;;2.17;;
65328;SDS011;51941;52.210;5.158;2023-09-19T03:50:19;9.85;;;1.83;;
65328;SDS011;51941;52.210;5.158;2023-09-19T03:52:45;11.27;;;2.22;;
65328;SDS011;51941;52.210;5.158;2023-09-19T03:55:12;9.73;;;1.85;;
65328;SDS011;51941;52.210;5.158;2023-09-19T03:57:40;10.82;;;1.60;;
65328;SDS011;51941;52.210;5.158;2023-09-19T04:00:08;8.40;;;1.60;;
65328;SDS011;51941;52.210;5.158;2023-09-19T04:02:42;9.25;;;1.63;;
65328;SDS011;51941;52.210;5.158;2023-09-19T04:05:09;11.88;;;1.85;;
65328;SDS011;51941;52.210;5.158;2023-09-19T04:07:36;9.65;;;1.45;;
65328;SDS011;51941;52.210;5.158;2023-09-19T04:10:03;8.70;;;1.80;;
65328;SDS011;51941;52.210;5.158;2023-09-19T04:12:31;5.32;;;1.85;;
65328;SDS011;51941;52.210;5.158;2023-09-19T04:14:58;6.63;;;1.92;;
65328;SDS011;51941;52.210;5.158;2023-09-19T04:17:25;10.20;;;1.90;;
65328;SDS011;51941;52.210;5.158;2023-09-19T04:19:53;14.32;;;2.03;;
65328;SDS011;51941;52.210;5.158;2023-09-19T04:22:20;10.05;;;2.13;;
65328;SDS011;51941;52.210;5.158;2023-09-19T04:24:46;12.75;;;2.30;;
65328;SDS011;51941;52.210;5.158;2023-09-19T04:27:13;10.30;;;1.73;;
65328;SDS011;51941;52.210;5.158;2023-09-19T04:29:40;9.63;;;1.80;;
65328;SDS011;51941;52.210;5.158;2023-09-19T04:32:07;10.32;;;1.50;;
65328;SDS011;51941;52.210;5.158;2023-09-19T04:34:34;10.10;;;2.08;;
65328;SDS011;51941;52.210;5.158;2023-09-19T04:37:03;7.00;;;1.70;;
65328;SDS011;51941;52.210;5.158;2023-09-19T04:39:30;6.22;;;2.00;;
65328;SDS011;51941;52.210;5.158;2023-09-19T04:41:56;6.25;;;1.70;;
65328;SDS011;51941;52.210;5.158;2023-09-19T04:44:24;10.35;;;2.17;;
65328;SDS011;51941;52.210;5.158;2023-09-19T04:46:51;11.50;;;2.55;;
65328;SDS011;51941;52.210;5.158;2023-09-19T04:49:18;7.13;;;1.83;;
65328;SDS011;51941;52.210;5.158;2023-09-19T04:51:44;9.98;;;2.08;;
65328;SDS011;51941;52.210;5.158;2023-09-19T04:54:13;8.77;;;1.70;;
65328;SDS011;51941;52.210;5.158;2023-09-19T04:56:40;10.48;;;2.17;;
65328;SDS011;51941;52.210;5.158;2023-09-19T04:59:06;8.98;;;1.70;;
65328;SDS011;51941;52.210;5.158;2023-09-19T05:01:35;10.15;;;2.00;;
65328;SDS011;51941;52.210;5.158;2023-09-19T05:04:03;8.27;;;1.70;;
65328;SDS011;51941;52.210;5.158;2023-09-19T05:06:30;10.00;;;1.95;;
65328;SDS011;51941;52.210;5.158;2023-09-19T05:08:56;7.00;;;1.77;;
65328;SDS011;51941;52.210;5.158;2023-09-19T05:11:27;8.45;;;1.67;;
65328;SDS011;51941;52.210;5.158;2023-09-19T05:13:55;10.88;;;1.98;;
65328;SDS011;51941;52.210;5.158;2023-09-19T05:16:22;9.70;;;1.60;;
65328;SDS011;51941;52.210;5.158;2023-09-19T05:18:48;9.30;;;2.05;;
65328;SDS011;51941;52.210;5.158;2023-09-19T05:21:16;7.45;;;1.55;;
65328;SDS011;51941;52.210;5.158;2023-09-19T05:23:43;10.90;;;1.73;;
65328;SDS011;51941;52.210;5.158;2023-09-19T05:26:10;13.48;;;2.33;;
65328;SDS011;51941;52.210;5.158;2023-09-19T05:28:39;9.20;;;1.80;;
65328;SDS011;51941;52.210;5.158;2023-09-19T05:31:05;7.47;;;1.95;;
65328;SDS011;51941;52.210;5.158;2023-09-19T05:33:32;9.02;;;2.10;;
65328;SDS011;51941;52.210;5.158;2023-09-19T05:35:59;9.55;;;1.77;;
65328;SDS011;51941;52.210;5.158;2023-09-19T05:38:25;7.85;;;1.65;;
65328;SDS011;51941;52.210;5.158;2023-09-19T05:40:52;10.85;;;1.70;;
65328;SDS011;51941;52.210;5.158;2023-09-19T05:43:19;10.40;;;2.22;;
65328;SDS011;51941;52.210;5.158;2023-09-19T05:45:47;10.18;;;1.90;;
65328;SDS011;51941;52.210;5.158;2023-09-19T05:48:17;8.77;;;2.05;;
65328;SDS011;51941;52.210;5.158;2023-09-19T05:50:46;9.70;;;1.77;;
65328;SDS011;51941;52.210;5.158;2023-09-19T05:53:14;11.02;;;1.90;;
65328;SDS011;51941;52.210;5.158;2023-09-19T05:55:41;11.02;;;1.80;;
65328;SDS011;51941;52.210;5.158;2023-09-19T05:58:08;7.57;;;1.70;;
65328;SDS011;51941;52.210;5.158;2023-09-19T06:00:35;11.57;;;2.22;;
65328;SDS011;51941;52.210;5.158;2023-09-19T06:03:03;10.95;;;1.90;;
65328;SDS011;51941;52.210;5.158;2023-09-19T06:05:30;11.75;;;2.10;;
65328;SDS011;51941;52.210;5.158;2023-09-19T06:07:57;9.27;;;1.80;;
65328;SDS011;51941;52.210;5.158;2023-09-19T06:10:25;10.27;;;1.95;;
65328;SDS011;51941;52.210;5.158;2023-09-19T06:12:53;12.82;;;1.95;;
65328;SDS011;51941;52.210;5.158;2023-09-19T06:15:20;16.38;;;2.63;;
65328;SDS011;51941;52.210;5.158;2023-09-19T06:17:48;10.25;;;1.90;;
65328;SDS011;51941;52.210;5.158;2023-09-19T06:20:17;13.55;;;2.50;;
65328;SDS011;51941;52.210;5.158;2023-09-19T06:22:45;6.93;;;1.70;;
65328;SDS011;51941;52.210;5.158;2023-09-19T06:25:12;7.35;;;1.80;;
65328;SDS011;51941;52.210;5.158;2023-09-19T06:27:42;11.35;;;1.95;;
65328;SDS011;51941;52.210;5.158;2023-09-19T06:30:09;11.50;;;2.03;;
65328;SDS011;51941;52.210;5.158;2023-09-19T06:32:37;9.85;;;1.98;;
65328;SDS011;51941;52.210;5.158;2023-09-19T06:35:05;9.57;;;2.10;;
65328;SDS011;51941;52.210;5.158;2023-09-19T06:37:35;14.80;;;2.50;;
65328;SDS011;51941;52.210;5.158;2023-09-19T06:40:04;13.80;;;2.92;;
65328;SDS011;51941;52.210;5.158;2023-09-19T06:42:34;10.02;;;2.05;;
65328;SDS011;51941;52.210;5.158;2023-09-19T06:45:02;9.65;;;2.13;;
65328;SDS011;51941;52.210;5.158;2023-09-19T06:47:33;8.10;;;2.05;;
65328;SDS011;51941;52.210;5.158;2023-09-19T06:50:00;15.57;;;2.55;;
65328;SDS011;51941;52.210;5.158;2023-09-19T06:52:27;11.02;;;2.60;;
65328;SDS011;51941;52.210;5.158;2023-09-19T06:54:55;7.43;;;2.20;;
65328;SDS011;51941;52.210;5.158;2023-09-19T06:57:22;7.20;;;1.70;;
65328;SDS011;51941;52.210;5.158;2023-09-19T06:59:49;9.98;;;2.10;;
65328;SDS011;51941;52.210;5.158;2023-09-19T07:02:16;9.70;;;2.13;;
65328;SDS011;51941;52.210;5.158;2023-09-19T07:04:43;13.27;;;2.42;;
65328;SDS011;51941;52.210;5.158;2023-09-19T07:07:10;11.55;;;2.40;;
65328;SDS011;51941;52.210;5.158;2023-09-19T07:09:39;10.90;;;2.30;;
65328;SDS011;51941;52.210;5.158;2023-09-19T07:12:08;9.40;;;2.17;;
65328;SDS011;51941;52.210;5.158;2023-09-19T07:14:37;7.72;;;2.08;;
65328;SDS011;51941;52.210;5.158;2023-09-19T07:17:03;12.00;;;2.28;;
65328;SDS011;51941;52.210;5.158;2023-09-19T07:19:30;16.23;;;2.78;;
65328;SDS011;51941;52.210;5.158;2023-09-19T07:21:57;12.73;;;2.35;;
65328;SDS011;51941;52.210;5.158;2023-09-19T07:24:27;14.05;;;2.25;;
65328;SDS011;51941;52.210;5.158;2023-09-19T07:26:54;17.45;;;3.00;;
65328;SDS011;51941;52.210;5.158;2023-09-19T07:29:22;11.57;;;2.10;;
65328;SDS011;51941;52.210;5.158;2023-09-19T07:31:51;10.48;;;2.67;;
65328;SDS011;51941;52.210;5.158;2023-09-19T07:34:18;7.35;;;2.13;;
65328;SDS011;51941;52.210;5.158;2023-09-19T07:36:46;7.57;;;2.10;;
65328;SDS011;51941;52.210;5.158;2023-09-19T07:39:12;7.53;;;2.00;;
65328;SDS011;51941;52.210;5.158;2023-09-19T07:41:39;10.30;;;2.10;;
65328;SDS011;51941;52.210;5.158;2023-09-19T07:44:07;11.30;;;2.00;;
65328;SDS011;51941;52.210;5.158;2023-09-19T07:46:35;11.43;;;1.58;;
65328;SDS011;51941;52.210;5.158;2023-09-19T07:49:02;8.13;;;2.15;;
65328;SDS011;51941;52.210;5.158;2023-09-19T07:51:30;13.55;;;2.80;;
65328;SDS011;51941;52.210;5.158;2023-09-19T07:53:58;11.25;;;2.38;;
65328;SDS011;51941;52.210;5.158;2023-09-19T07:56:25;7.75;;;1.92;;
65328;SDS011;51941;52.210;5.158;2023-09-19T07:58:52;11.57;;;2.20;;
65328;SDS011;51941;52.210;5.158;2023-09-19T08:01:19;14.15;;;2.20;;
65328;SDS011;51941;52.210;5.158;2023-09-19T08:03:50;11.60;;;2.13;;
65328;SDS011;51941;52.210;5.158;2023-09-19T08:06:17;10.02;;;2.38;;
65328;SDS011;51941;52.210;5.158;2023-09-19T08:08:44;10.13;;;2.22;;
65328;SDS011;51941;52.210;5.158;2023-09-19T08:11:10;9.77;;;1.92;;
65328;SDS011;51941;52.210;5.158;2023-09-19T08:13:38;13.75;;;2.75;;
65328;SDS011;51941;52.210;5.158;2023-09-19T08:16:08;12.68;;;2.58;;
65328;SDS011;51941;52.210;5.158;2023-09-19T08:18:35;13.48;;;2.95;;
65328;SDS011;51941;52.210;5.158;2023-09-19T08:21:03;11.30;;;2.53;;
65328;SDS011;51941;52.210;5.158;2023-09-19T08:23:31;15.93;;;2.28;;
65328;SDS011;51941;52.210;5.158;2023-09-19T08:25:58;16.27;;;2.50;;
65328;SDS011;51941;52.210;5.158;2023-09-19T08:28:28;12.35;;;2.53;;
65328;SDS011;51941;52.210;5.158;2023-09-19T08:30:55;14.00;;;2.28;;
65328;SDS011;51941;52.210;5.158;2023-09-19T08:33:23;11.50;;;2.55;;
65328;SDS011;51941;52.210;5.158;2023-09-19T08:35:49;10.50;;;2.35;;
65328;SDS011;51941;52.210;5.158;2023-09-19T08:38:18;10.73;;;2.40;;
65328;SDS011;51941;52.210;5.158;2023-09-19T08:40:45;10.73;;;2.38;;
65328;SDS011;51941;52.210;5.158;2023-09-19T08:43:12;12.38;;;2.75;;
65328;SDS011;51941;52.210;5.158;2023-09-19T08:45:38;14.50;;;2.88;;
65328;SDS011;51941;52.210;5.158;2023-09-19T08:48:12;16.15;;;2.90;;
65328;SDS011;51941;52.210;5.158;2023-09-19T08:50:47;10.68;;;2.25;;
65328;SDS011;51941;52.210;5.158;2023-09-19T08:53:21;16.63;;;2.70;;
65328;SDS011;51941;52.210;5.158;2023-09-19T08:55:54;13.03;;;2.27;;
65328;SDS011;51941;52.210;5.158;2023-09-19T08:58:24;12.25;;;2.40;;
65328;SDS011;51941;52.210;5.158;2023-09-19T09:00:54;12.07;;;2.25;;
65328;SDS011;51941;52.210;5.158;2023-09-19T09:03:26;10.98;;;2.17;;
65328;SDS011;51941;52.210;5.158;2023-09-19T09:05:58;12.40;;;2.38;;
65328;SDS011;51941;52.210;5.158;2023-09-19T09:08:27;15.60;;;2.67;;
65328;SDS011;51941;52.210;5.158;2023-09-19T09:10:57;12.70;;;2.45;;
65328;SDS011;51941;52.210;5.158;2023-09-19T09:13:24;14.13;;;2.80;;
65328;SDS011;51941;52.210;5.158;2023-09-19T09:15:53;9.00;;;1.90;;
65328;SDS011;51941;52.210;5.158;2023-09-19T09:18:19;13.82;;;2.83;;
65328;SDS011;51941;52.210;5.158;2023-09-19T09:20:47;12.40;;;2.35;;
65328;SDS011;51941;52.210;5.158;2023-09-19T09:23:14;9.60;;;2.03;;
65328;SDS011;51941;52.210;5.158;2023-09-19T09:25:49;10.30;;;2.13;;
65328;SDS011;51941;52.210;5.158;2023-09-19T09:28:21;11.82;;;2.20;;
65328;SDS011;51941;52.210;5.158;2023-09-19T09:30:48;8.40;;;2.20;;
65328;SDS011;51941;52.210;5.158;2023-09-19T09:33:17;11.27;;;1.95;;
65328;SDS011;51941;52.210;5.158;2023-09-19T09:35:51;15.43;;;2.63;;
65328;SDS011;51941;52.210;5.158;2023-09-19T09:38:19;12.30;;;2.35;;
65328;SDS011;51941;52.210;5.158;2023-09-19T09:40:52;9.73;;;2.17;;
65328;SDS011;51941;52.210;5.158;2023-09-19T09:43:25;14.93;;;2.60;;
65328;SDS011;51941;52.210;5.158;2023-09-19T09:49:01;12.38;;;2.10;;
65328;SDS011;51941;52.210;5.158;2023-09-19T09:51:44;11.32;;;1.92;;
65328;SDS011;51941;52.210;5.158;2023-09-19T09:54:23;15.68;;;2.33;;
65328;SDS011;51941;52.210;5.158;2023-09-19T09:56:54;16.23;;;2.38;;
65328;SDS011;51941;52.210;5.158;2023-09-19T10:02:16;12.35;;;2.70;;
65328;SDS011;51941;52.210;5.158;2023-09-19T10:04:50;14.85;;;2.45;;
65328;SDS011;51941;52.210;5.158;2023-09-19T10:07:27;11.68;;;2.22;;
65328;SDS011;51941;52.210;5.158;2023-09-19T10:09:58;10.32;;;1.83;;
65328;SDS011;51941;52.210;5.158;2023-09-19T10:12:37;11.50;;;2.17;;
65328;SDS011;51941;52.210;5.158;2023-09-19T10:15:08;13.23;;;2.67;;
65328;SDS011;51941;52.210;5.158;2023-09-19T10:17:41;9.82;;;1.80;;
65328;SDS011;51941;52.210;5.158;2023-09-19T10:20:12;13.52;;;2.17;;
65328;SDS011;51941;52.210;5.158;2023-09-19T10:23:04;11.30;;;1.90;;
65328;SDS011;51941;52.210;5.158;2023-09-19T10:28:06;10.57;;;2.05;;
65328;SDS011;51941;52.210;5.158;2023-09-19T10:30:37;10.10;;;2.05;;
65328;SDS011;51941;52.210;5.158;2023-09-19T10:33:07;10.77;;;1.90;;
65328;SDS011;51941;52.210;5.158;2023-09-19T10:35:36;12.25;;;1.90;;
65328;SDS011;51941;52.210;5.158;2023-09-19T10:38:05;10.55;;;2.03;;
65328;SDS011;51941;52.210;5.158;2023-09-19T10:40:34;9.73;;;1.50;;
65328;SDS011;51941;52.210;5.158;2023-09-19T10:43:02;9.38;;;2.03;;
65328;SDS011;51941;52.210;5.158;2023-09-19T10:48:00;8.35;;;1.90;;
65328;SDS011;51941;52.210;5.158;2023-09-19T10:50:30;13.30;;;2.20;;
65328;SDS011;51941;52.210;5.158;2023-09-19T10:53:00;11.30;;;1.90;;
65328;SDS011;51941;52.210;5.158;2023-09-19T10:55:33;8.35;;;1.90;;
65328;SDS011;51941;52.210;5.158;2023-09-19T10:58:01;7.70;;;1.95;;
65328;SDS011;51941;52.210;5.158;2023-09-19T11:03:19;7.00;;;1.52;;
65328;SDS011;51941;52.210;5.158;2023-09-19T11:06:01;10.40;;;1.95;;
65328;SDS011;51941;52.210;5.158;2023-09-19T11:11:44;10.15;;;1.60;;
65328;SDS011;51941;52.210;5.158;2023-09-19T11:14:17;7.05;;;1.70;;
65328;SDS011;51941;52.210;5.158;2023-09-19T11:20:23;6.20;;;1.60;;
65328;SDS011;51941;52.210;5.158;2023-09-19T11:23:21;7.53;;;1.57;;
65328;SDS011;51941;52.210;5.158;2023-09-19T11:25:52;9.88;;;1.30;;
65328;SDS011;51941;52.210;5.158;2023-09-19T11:28:29;10.00;;;1.58;;
65328;SDS011;51941;52.210;5.158;2023-09-19T11:40:29;8.52;;;1.27;;
65328;SDS011;51941;52.210;5.158;2023-09-19T11:42:56;4.22;;;1.13;;
65328;SDS011;51941;52.210;5.158;2023-09-19T11:48:27;8.57;;;1.58;;
65328;SDS011;51941;52.210;5.158;2023-09-19T11:50:55;8.57;;;1.65;;
65328;SDS011;51941;52.210;5.158;2023-09-19T11:53:24;10.20;;;1.60;;
65328;SDS011;51941;52.210;5.158;2023-09-19T11:56:04;5.40;;;1.20;;
65328;SDS011;51941;52.210;5.158;2023-09-19T11:58:35;7.93;;;1.40;;
65328;SDS011;51941;52.210;5.158;2023-09-19T12:01:05;4.85;;;1.33;;
65328;SDS011;51941;52.210;5.158;2023-09-19T12:03:38;4.88;;;1.40;;
65328;SDS011;51941;52.210;5.158;2023-09-19T12:06:12;5.45;;;1.25;;
65328;SDS011;51941;52.210;5.158;2023-09-19T12:08:40;8.60;;;1.52;;
65328;SDS011;51941;52.210;5.158;2023-09-19T12:11:13;6.85;;;1.30;;
65328;SDS011;51941;52.210;5.158;2023-09-19T12:13:42;3.05;;;1.02;;
65328;SDS011;51941;52.210;5.158;2023-09-19T12:21:07;3.83;;;1.08;;
65328;SDS011;51941;52.210;5.158;2023-09-19T12:23:37;6.20;;;1.08;;
65328;SDS011;51941;52.210;5.158;2023-09-19T12:26:06;5.25;;;1.00;;
65328;SDS011;51941;52.210;5.158;2023-09-19T12:28:40;9.70;;;1.50;;
65328;SDS011;51941;52.210;5.158;2023-09-19T12:31:08;7.95;;;1.42;;
65328;SDS011;51941;52.210;5.158;2023-09-19T12:33:37;5.75;;;1.55;;
65328;SDS011;51941;52.210;5.158;2023-09-19T12:36:18;6.72;;;1.17;;
65328;SDS011;51941;52.210;5.158;2023-09-19T12:38:50;5.10;;;1.20;;
65328;SDS011;51941;52.210;5.158;2023-09-19T12:41:20;4.97;;;1.70;;
65328;SDS011;51941;52.210;5.158;2023-09-19T12:43:49;5.22;;;1.10;;
65328;SDS011;51941;52.210;5.158;2023-09-19T12:46:19;6.82;;;1.48;;
65328;SDS011;51941;52.210;5.158;2023-09-19T12:51:42;5.30;;;1.17;;
65328;SDS011;51941;52.210;5.158;2023-09-19T12:54:09;4.35;;;1.00;;
65328;SDS011;51941;52.210;5.158;2023-09-19T12:56:40;6.72;;;1.20;;
65328;SDS011;51941;52.210;5.158;2023-09-19T12:59:11;6.63;;;1.20;;
65328;SDS011;51941;52.210;5.158;2023-09-19T13:01:39;4.28;;;1.30;;
65328;SDS011;51941;52.210;5.158;2023-09-19T13:04:14;6.13;;;1.30;;
65328;SDS011;51941;52.210;5.158;2023-09-19T13:06:45;2.83;;;0.73;;
65328;SDS011;51941;52.210;5.158;2023-09-19T13:09:14;3.67;;;0.82;;
65328;SDS011;51941;52.210;5.158;2023-09-19T13:11:41;6.10;;;1.00;;
65328;SDS011;51941;52.210;5.158;2023-09-19T13:14:15;3.40;;;0.90;;
65328;SDS011;51941;52.210;5.158;2023-09-19T13:16:56;4.55;;;0.70;;
65328;SDS011;51941;52.210;5.158;2023-09-19T13:19:42;4.47;;;1.10;;
65328;SDS011;51941;52.210;5.158;2023-09-19T13:25:03;5.30;;;0.82;;
65328;SDS011;51941;52.210;5.158;2023-09-19T13:27:31;4.47;;;0.90;;
65328;SDS011;51941;52.210;5.158;2023-09-19T13:30:00;3.22;;;0.80;;
65328;SDS011;51941;52.210;5.158;2023-09-19T13:32:26;4.13;;;1.00;;
65328;SDS011;51941;52.210;5.158;2023-09-19T13:34:53;7.03;;;0.95;;
65328;SDS011;51941;52.210;5.158;2023-09-19T13:37:20;4.53;;;1.00;;
65328;SDS011;51941;52.210;5.158;2023-09-19T13:39:47;6.47;;;1.52;;
65328;SDS011;51941;52.210;5.158;2023-09-19T13:42:14;5.15;;;0.85;;
65328;SDS011;51941;52.210;5.158;2023-09-19T13:44:41;6.80;;;1.10;;
65328;SDS011;51941;52.210;5.158;2023-09-19T13:47:10;3.75;;;1.02;;
65328;SDS011;51941;52.210;5.158;2023-09-19T13:49:38;7.82;;;0.88;;
65328;SDS011;51941;52.210;5.158;2023-09-19T13:52:05;6.28;;;1.30;;
65328;SDS011;51941;52.210;5.158;2023-09-19T13:54:32;6.25;;;0.93;;
65328;SDS011;51941;52.210;5.158;2023-09-19T13:56:59;6.85;;;1.02;;
65328;SDS011;51941;52.210;5.158;2023-09-19T13:59:27;5.38;;;1.08;;
65328;SDS011;51941;52.210;5.158;2023-09-19T14:01:53;5.00;;;1.25;;
65328;SDS011;51941;52.210;5.158;2023-09-19T14:04:21;7.15;;;1.10;;
65328;SDS011;51941;52.210;5.158;2023-09-19T14:06:48;5.55;;;1.05;;
65328;SDS011;51941;52.210;5.158;2023-09-19T14:09:15;5.97;;;1.33;;
65328;SDS011;51941;52.210;5.158;2023-09-19T14:11:44;7.85;;;1.40;;
65328;SDS011;51941;52.210;5.158;2023-09-19T14:14:12;5.00;;;1.45;;
65328;SDS011;51941;52.210;5.158;2023-09-19T14:16:39;5.22;;;1.20;;
65328;SDS011;51941;52.210;5.158;2023-09-19T14:19:07;6.43;;;1.30;;
65328;SDS011;51941;52.210;5.158;2023-09-19T14:21:35;4.20;;;1.17;;
65328;SDS011;51941;52.210;5.158;2023-09-19T14:24:04;6.80;;;1.75;;
65328;SDS011;51941;52.210;5.158;2023-09-19T14:26:34;4.65;;;1.50;;
65328;SDS011;51941;52.210;5.158;2023-09-19T14:29:01;9.02;;;1.85;;
65328;SDS011;51941;52.210;5.158;2023-09-19T14:31:28;5.70;;;1.52;;
65328;SDS011;51941;52.210;5.158;2023-09-19T14:33:55;4.68;;;1.38;;
65328;SDS011;51941;52.210;5.158;2023-09-19T14:36:22;8.65;;;2.05;;
65328;SDS011;51941;52.210;5.158;2023-09-19T14:38:53;6.43;;;1.50;;
65328;SDS011;51941;52.210;5.158;2023-09-19T14:41:23;8.30;;;2.00;;
65328;SDS011;51941;52.210;5.158;2023-09-19T14:46:20;8.35;;;1.75;;
65328;SDS011;51941;52.210;5.158;2023-09-19T14:48:50;13.00;;;1.83;;
65328;SDS011;51941;52.210;5.158;2023-09-19T14:51:17;4.75;;;1.52;;
65328;SDS011;51941;52.210;5.158;2023-09-19T14:53:45;6.75;;;1.60;;
65328;SDS011;51941;52.210;5.158;2023-09-19T14:56:13;4.80;;;1.55;;
65328;SDS011;51941;52.210;5.158;2023-09-19T14:58:43;5.43;;;1.60;;
65328;SDS011;51941;52.210;5.158;2023-09-19T15:01:10;7.40;;;1.75;;
65328;SDS011;51941;52.210;5.158;2023-09-19T15:03:38;7.47;;;1.88;;
65328;SDS011;51941;52.210;5.158;2023-09-19T15:06:06;6.32;;;1.55;;
65328;SDS011;51941;52.210;5.158;2023-09-19T15:08:35;5.28;;;1.70;;
65328;SDS011;51941;52.210;5.158;2023-09-19T15:11:03;8.18;;;1.90;;
65328;SDS011;51941;52.210;5.158;2023-09-19T15:13:32;7.93;;;2.17;;
65328;SDS011;51941;52.210;5.158;2023-09-19T15:15:59;8.77;;;1.77;;
65328;SDS011;51941;52.210;5.158;2023-09-19T15:18:27;7.28;;;1.80;;
65328;SDS011;51941;52.210;5.158;2023-09-19T15:20:55;5.82;;;1.70;;
65328;SDS011;51941;52.210;5.158;2023-09-19T15:23:21;5.80;;;1.63;;
65328;SDS011;51941;52.210;5.158;2023-09-19T15:25:48;9.43;;;1.60;;
65328;SDS011;51941;52.210;5.158;2023-09-19T15:28:16;9.55;;;1.80;;
65328;SDS011;51941;52.210;5.158;2023-09-19T15:30:44;7.78;;;1.77;;
65328;SDS011;51941;52.210;5.158;2023-09-19T15:33:10;9.02;;;2.17;;
65328;SDS011;51941;52.210;5.158;2023-09-19T15:35:37;8.70;;;1.88;;
65328;SDS011;51941;52.210;5.158;2023-09-19T15:38:04;7.68;;;1.75;;
65328;SDS011;51941;52.210;5.158;2023-09-19T15:40:32;8.77;;;2.45;;
65328;SDS011;51941;52.210;5.158;2023-09-19T15:42:59;8.05;;;1.95;;
65328;SDS011;51941;52.210;5.158;2023-09-19T15:45:26;10.88;;;2.22;;